createdAt,value
2023-03-26T00:00:06.757Z,51.323437
2023-03-26T00:01:06.782Z,51.323437
2023-03-26T00:02:06.729Z,51.323456
2023-03-26T00:03:06.721Z,51.323456
2023-03-26T00:04:06.719Z,51.323444
2023-03-26T00:05:06.693Z,51.323441
2023-03-26T00:06:06.689Z,51.323414
2023-03-26T00:07:06.622Z,51.323452
2023-03-26T00:08:06.604Z,51.323399
2023-03-26T00:09:06.602Z,51.323425
2023-03-26T00:10:06.575Z,51.323444
2023-03-26T00:11:06.573Z,51.323444
2023-03-26T00:12:06.556Z,51.323463
2023-03-26T00:13:06.507Z,51.323429
2023-03-26T00:14:06.488Z,51.323399
2023-03-26T00:15:06.474Z,51.323399
2023-03-26T00:16:06.524Z,51.323414
2023-03-26T00:17:06.434Z,51.323437
2023-03-26T00:18:06.448Z,51.323456
2023-03-26T00:19:06.399Z,51.323433
2023-03-26T00:20:06.380Z,51.323437
2023-03-26T00:21:06.389Z,51.323418
2023-03-26T00:22:06.351Z,51.323414
2023-03-26T00:23:06.324Z,51.323414
2023-03-26T00:24:06.338Z,51.323437
2023-03-26T00:25:06.287Z,51.323460
2023-03-26T00:26:06.297Z,51.323429
2023-03-26T00:27:06.243Z,51.323425
2023-03-26T00:28:06.233Z,51.323452
2023-03-26T00:29:06.210Z,51.323448
2023-03-26T00:30:06.188Z,51.323444
2023-03-26T00:31:06.222Z,51.323433
2023-03-26T00:32:06.151Z,51.323410
2023-03-26T00:33:06.149Z,51.323421
2023-03-26T00:34:06.116Z,51.323425
2023-03-26T00:35:06.095Z,51.323410
2023-03-26T00:36:06.157Z,51.323410
2023-03-26T00:37:06.063Z,51.323437
2023-03-26T00:38:06.044Z,51.323425
2023-03-26T00:39:06.272Z,51.323410
2023-03-26T00:40:06.028Z,51.323421
2023-03-26T00:41:06.072Z,51.323433
2023-03-26T00:42:05.964Z,51.323414
2023-03-26T00:43:05.945Z,51.323425
2023-03-26T00:44:05.932Z,51.323418
2023-03-26T00:45:05.913Z,51.323421
2023-03-26T00:46:05.926Z,51.323421
2023-03-26T00:47:05.869Z,51.323399
2023-03-26T00:48:05.903Z,51.323433
2023-03-26T00:49:05.835Z,51.323418
2023-03-26T00:50:05.815Z,51.323410
2023-03-26T00:51:05.823Z,51.323421
2023-03-26T00:52:05.774Z,51.323414
2023-03-26T00:53:05.757Z,51.323421
2023-03-26T00:54:05.742Z,51.323418
2023-03-26T00:55:05.725Z,51.323418
2023-03-26T00:56:05.733Z,51.323437
2023-03-26T00:57:05.715Z,51.323425
2023-03-26T00:58:05.667Z,51.323433
2023-03-26T00:59:05.655Z,51.323433
2023-03-26T01:00:05.633Z,51.323406
2023-03-26T01:01:39.254Z,51.323425
2023-03-26T01:02:05.601Z,51.323444
2023-03-26T01:03:05.655Z,51.323456
2023-03-26T01:04:09.146Z,51.323475
2023-03-26T01:05:06.580Z,51.323444
2023-03-26T01:06:05.529Z,51.323414
2023-03-26T01:07:39.140Z,51.323410
2023-03-26T01:08:05.497Z,51.323418
2023-03-26T01:11:28.088Z,51.323483
2023-03-26T01:12:28.042Z,51.323483
2023-03-26T01:13:28.025Z,51.323467
2023-03-26T01:14:28.001Z,51.323406
2023-03-26T01:15:27.988Z,51.323414
2023-03-26T01:16:27.991Z,51.323425
2023-03-26T01:17:28.046Z,51.323387
2023-03-26T01:18:27.934Z,51.323406
2023-03-26T01:20:01.489Z,51.323421
2023-03-26T01:20:27.904Z,51.323460
2023-03-26T01:22:01.479Z,51.323414
2023-03-26T01:22:27.858Z,51.323406
2023-03-26T01:24:01.427Z,51.323441
2023-03-26T01:24:27.833Z,51.323456
2023-03-26T01:26:01.452Z,51.323456
2023-03-26T01:26:27.799Z,51.323441
2023-03-26T01:28:01.355Z,51.323433
2023-03-26T01:28:27.770Z,51.323452
2023-03-26T01:29:27.755Z,51.323433
2023-03-26T01:30:27.731Z,51.323448
2023-03-26T01:31:27.743Z,51.323444
2023-03-26T01:33:01.429Z,51.323437
2023-03-26T01:33:27.773Z,51.323421
2023-03-26T01:34:27.660Z,51.323429
2023-03-26T01:35:27.671Z,51.323441
2023-03-26T01:36:27.653Z,51.323433
2023-03-26T01:37:27.643Z,51.323444
2023-03-26T01:38:27.586Z,51.323425
2023-03-26T01:39:27.567Z,51.323421
2023-03-26T01:40:27.551Z,51.323429
2023-03-26T01:41:27.534Z,51.323441
2023-03-26T01:42:27.538Z,51.323418
2023-03-26T01:43:27.490Z,51.323418
2023-03-26T01:44:27.478Z,51.323425
2023-03-26T01:45:27.456Z,51.323452
2023-03-26T01:46:27.543Z,51.323441
2023-03-26T01:47:27.432Z,51.323437
2023-03-26T01:48:27.401Z,51.323441
2023-03-26T01:49:27.388Z,51.323418
2023-03-26T01:50:27.358Z,51.323395
2023-03-26T01:51:27.391Z,51.323437
2023-03-26T01:52:27.321Z,51.323414
2023-03-26T01:53:27.304Z,51.323414
2023-03-26T01:54:27.292Z,51.323433
2023-03-26T01:55:27.267Z,51.323448
2023-03-26T01:56:27.284Z,51.323421
2023-03-26T01:57:27.233Z,51.323410
2023-03-26T01:58:27.240Z,51.323395
2023-03-26T01:59:27.197Z,51.323414
2023-03-26T02:01:00.775Z,51.323429
2023-03-26T02:01:27.213Z,51.323460
2023-03-26T02:02:27.308Z,51.323475
2023-03-26T02:03:27.247Z,51.323463
2023-03-26T02:04:27.103Z,51.323456
2023-03-26T02:05:27.087Z,51.323452
2023-03-26T02:06:27.071Z,51.323475
2023-03-26T02:07:27.074Z,51.323490
2023-03-26T02:08:27.030Z,51.323483
2023-03-26T02:09:27.012Z,51.323471
2023-03-26T02:10:26.998Z,51.323463
2023-03-26T02:11:33.642Z,51.323456
2023-03-26T02:12:28.978Z,51.323463
2023-03-26T02:13:26.936Z,51.323460
2023-03-26T02:14:26.916Z,51.323441
2023-03-26T02:15:26.944Z,51.323448
2023-03-26T02:16:26.895Z,51.323444
2023-03-26T02:17:26.903Z,51.323463
2023-03-26T02:18:26.860Z,51.323452
2023-03-26T02:19:26.818Z,51.323452
2023-03-26T02:20:26.797Z,51.323463
2023-03-26T02:21:26.784Z,51.323475
2023-03-26T02:22:26.791Z,51.323490
2023-03-26T02:23:26.739Z,51.323460
2023-03-26T02:24:26.732Z,51.323456
2023-03-26T02:25:26.705Z,51.323467
2023-03-26T02:26:26.693Z,51.323483
2023-03-26T02:27:26.697Z,51.323483
2023-03-26T02:28:26.651Z,51.323479
2023-03-26T02:29:26.624Z,51.323475
2023-03-26T02:30:26.629Z,51.323444
2023-03-26T02:31:26.845Z,51.323479
2023-03-26T02:32:28.773Z,51.323456
2023-03-26T02:33:26.551Z,51.323452
2023-03-26T02:34:26.541Z,51.323448
2023-03-26T02:35:26.610Z,51.323448
2023-03-26T02:36:26.597Z,51.323509
2023-03-26T02:37:26.513Z,51.323471
2023-03-26T02:38:26.460Z,51.323483
2023-03-26T02:39:26.441Z,51.323479
2023-03-26T02:40:26.419Z,51.323528
2023-03-26T02:41:26.402Z,51.323467
2023-03-26T02:42:26.426Z,51.323441
2023-03-26T02:43:26.374Z,51.323444
2023-03-26T02:44:26.383Z,51.323360
2023-03-26T02:45:26.374Z,51.323441
2023-03-26T02:46:26.358Z,51.323460
2023-03-26T02:47:26.329Z,51.323483
2023-03-26T02:48:26.276Z,51.323456
2023-03-26T02:49:26.267Z,51.323441
2023-03-26T02:50:26.240Z,51.323444
2023-03-26T02:51:26.225Z,51.323441
2023-03-26T02:52:26.230Z,51.323452
2023-03-26T02:53:26.186Z,51.323448
2023-03-26T02:54:26.169Z,51.323444
2023-03-26T02:55:26.149Z,51.323437
2023-03-26T02:56:26.132Z,51.323433
2023-03-26T02:57:26.182Z,51.323452
2023-03-26T02:58:26.092Z,51.323463
2023-03-26T02:59:26.070Z,51.323498
2023-03-26T03:00:26.050Z,51.323494
2023-03-26T03:01:26.052Z,51.323418
2023-03-26T03:02:26.119Z,51.323448
2023-03-26T03:03:26.099Z,51.323448
2023-03-26T03:04:25.987Z,51.323441
2023-03-26T03:05:25.956Z,51.323421
2023-03-26T03:06:25.944Z,51.323437
2023-03-26T03:07:25.963Z,51.323456
2023-03-26T03:08:25.916Z,51.323479
2023-03-26T03:09:25.885Z,51.323479
2023-03-26T03:10:25.869Z,51.323475
2023-03-26T03:11:25.854Z,51.323463
2023-03-26T03:12:25.829Z,51.323433
2023-03-26T03:13:25.840Z,51.323444
2023-03-26T03:14:25.790Z,51.323292
2023-03-26T03:15:25.769Z,51.323372
2023-03-26T03:16:25.798Z,51.323448
2023-03-26T03:17:25.746Z,51.323441
2023-03-26T03:18:25.750Z,51.323402
2023-03-26T03:19:25.696Z,51.323387
2023-03-26T03:20:25.691Z,51.323414
2023-03-26T03:21:25.666Z,51.323433
2023-03-26T03:22:25.646Z,51.323421
2023-03-26T03:23:25.656Z,51.323448
2023-03-26T03:24:25.610Z,51.323425
2023-03-26T03:25:25.592Z,51.323402
2023-03-26T03:26:25.569Z,51.323414
2023-03-26T03:27:25.552Z,51.323441
2023-03-26T03:28:25.562Z,51.323433
2023-03-26T03:29:25.534Z,51.323425
2023-03-26T03:30:26.498Z,51.323414
2023-03-26T03:31:25.512Z,51.323402
2023-03-26T03:32:25.482Z,51.323410
2023-03-26T03:33:25.479Z,51.323421
2023-03-26T03:34:25.429Z,51.323448
2023-03-26T03:35:25.416Z,51.323441
2023-03-26T03:36:25.386Z,51.323437
2023-03-26T03:37:25.366Z,51.323425
2023-03-26T03:38:25.390Z,51.323414
2023-03-26T03:39:25.328Z,51.323429
2023-03-26T03:40:25.313Z,51.323429
2023-03-26T03:41:58.842Z,51.323414
2023-03-26T03:42:25.273Z,51.323421
2023-03-26T03:43:25.292Z,51.323444
2023-03-26T03:44:25.254Z,51.323418
2023-03-26T03:45:25.222Z,51.323429
2023-03-26T03:46:25.238Z,51.323429
2023-03-26T03:47:25.214Z,51.323448
2023-03-26T03:48:25.197Z,51.323421
2023-03-26T03:49:25.152Z,51.323433
2023-03-26T03:50:25.141Z,51.323433
2023-03-26T03:51:25.121Z,51.323425
2023-03-26T03:52:25.101Z,51.323429
2023-03-26T03:53:25.109Z,51.323437
2023-03-26T03:54:25.060Z,51.323433
2023-03-26T03:55:25.040Z,51.323421
2023-03-26T03:56:25.029Z,51.323429
2023-03-26T03:57:25.009Z,51.323448
2023-03-26T03:58:25.017Z,51.323433
2023-03-26T03:59:24.968Z,51.323414
2023-03-26T04:00:24.949Z,51.323437
2023-03-26T04:01:24.935Z,51.323429
2023-03-26T04:02:24.952Z,51.323437
2023-03-26T04:03:57.064Z,51.323406
2023-03-26T04:04:24.956Z,51.323418
2023-03-26T04:05:57.123Z,51.323414
2023-03-26T04:06:24.851Z,51.323418
2023-03-26T04:07:57.464Z,51.323410
2023-03-26T04:08:24.819Z,51.323421
2023-03-26T04:09:24.798Z,51.323414
2023-03-26T04:10:24.777Z,51.323399
2023-03-26T04:11:58.320Z,51.323425
2023-03-26T04:12:24.746Z,51.323402
2023-03-26T04:13:24.768Z,51.323418
2023-03-26T04:14:24.715Z,51.323421
2023-03-26T04:15:24.695Z,51.323421
2023-03-26T04:16:24.694Z,51.323414
2023-03-26T04:17:24.756Z,51.323421
2023-03-26T04:18:24.660Z,51.323441
2023-03-26T04:19:24.614Z,51.323376
2023-03-26T04:20:24.600Z,51.323399
2023-03-26T04:21:24.594Z,51.323421
2023-03-26T04:22:24.557Z,51.323421
2023-03-26T04:23:24.566Z,51.323402
2023-03-26T04:24:24.521Z,51.323391
2023-03-26T04:25:24.503Z,51.323406
2023-03-26T04:26:24.489Z,51.323410
2023-03-26T04:27:24.470Z,51.323418
2023-03-26T04:28:24.468Z,51.323406
2023-03-26T04:29:24.422Z,51.323421
2023-03-26T04:30:24.403Z,51.323429
2023-03-26T04:31:24.678Z,51.323433
2023-03-26T04:32:24.394Z,51.323433
2023-03-26T04:33:24.383Z,51.323399
2023-03-26T04:34:24.577Z,51.323402
2023-03-26T04:35:24.357Z,51.323395
2023-03-26T04:36:24.289Z,51.323414
2023-03-26T04:37:57.842Z,51.323410
2023-03-26T04:38:24.290Z,51.323402
2023-03-26T04:39:24.241Z,51.323418
2023-03-26T04:40:24.227Z,51.323391
2023-03-26T04:41:24.207Z,51.323410
2023-03-26T04:42:24.191Z,51.323406
2023-03-26T04:43:24.203Z,51.323418
2023-03-26T04:44:24.155Z,51.323410
2023-03-26T04:45:24.131Z,51.323421
2023-03-26T04:46:24.223Z,51.323425
2023-03-26T04:47:24.131Z,51.323372
2023-03-26T04:48:24.108Z,51.323364
2023-03-26T04:49:24.059Z,51.323402
2023-03-26T04:50:24.042Z,51.323421
2023-03-26T04:51:24.024Z,51.323395
2023-03-26T04:52:24.013Z,51.323406
2023-03-26T04:53:24.074Z,51.323406
2023-03-26T04:54:23.966Z,51.323391
2023-03-26T04:55:23.949Z,51.323399
2023-03-26T04:56:23.931Z,51.323402
2023-03-26T04:57:23.908Z,51.323425
2023-03-26T04:58:23.921Z,51.323425
2023-03-26T04:59:23.872Z,51.323425
2023-03-26T05:00:23.855Z,51.323406
2023-03-26T05:01:23.894Z,51.323421
2023-03-26T05:02:23.818Z,51.323372
2023-03-26T05:03:23.836Z,51.323410
2023-03-26T05:04:23.801Z,51.323433
2023-03-26T05:05:23.764Z,51.323410
2023-03-26T05:06:23.746Z,51.323376
2023-03-26T05:07:23.756Z,51.323421
2023-03-26T05:08:23.711Z,51.323418
2023-03-26T05:09:23.720Z,51.323536
2023-03-26T05:10:23.670Z,51.323483
2023-03-26T05:11:23.659Z,51.323452
2023-03-26T05:12:23.644Z,51.323463
2023-03-26T05:13:23.618Z,51.323402
2023-03-26T05:14:23.630Z,51.323414
2023-03-26T05:15:23.576Z,51.323395
2023-03-26T05:16:24.613Z,51.323429
2023-03-26T05:17:23.595Z,51.323410
2023-03-26T05:18:23.537Z,51.323387
2023-03-26T05:19:23.550Z,51.323410
2023-03-26T05:20:23.491Z,51.323437
2023-03-26T05:21:23.486Z,51.323429
2023-03-26T05:22:23.467Z,51.323463
2023-03-26T05:23:23.436Z,51.323437
2023-03-26T05:24:23.448Z,51.323421
2023-03-26T05:25:23.398Z,51.323421
2023-03-26T05:26:23.391Z,51.323391
2023-03-26T05:27:23.378Z,51.323433
2023-03-26T05:28:23.358Z,51.323444
2023-03-26T05:29:23.357Z,51.323395
2023-03-26T05:30:23.312Z,51.323441
2023-03-26T05:31:23.290Z,51.323444
2023-03-26T05:32:23.356Z,51.323475
2023-03-26T05:33:23.345Z,51.323460
2023-03-26T05:34:23.267Z,51.323475
2023-03-26T05:35:23.232Z,51.323498
2023-03-26T05:36:23.199Z,51.323502
2023-03-26T05:37:23.183Z,51.323475
2023-03-26T05:38:23.164Z,51.323265
2023-03-26T05:39:23.179Z,51.323242
2023-03-26T05:40:23.127Z,51.323341
2023-03-26T05:41:23.107Z,51.323559
2023-03-26T05:42:23.094Z,51.323536
2023-03-26T05:43:23.069Z,51.323494
2023-03-26T05:44:23.082Z,51.323406
2023-03-26T05:45:23.062Z,51.323353
2023-03-26T05:46:23.068Z,51.323437
2023-03-26T05:47:23.097Z,51.323505
2023-03-26T05:48:22.978Z,51.323448
2023-03-26T05:49:23.003Z,51.323490
2023-03-26T05:50:22.949Z,51.323505
2023-03-26T05:51:22.935Z,51.323494
2023-03-26T05:52:22.919Z,51.323433
2023-03-26T05:53:22.881Z,51.323414
2023-03-26T05:54:22.895Z,51.323402
2023-03-26T05:55:22.843Z,51.323383
2023-03-26T05:56:22.838Z,51.323391
2023-03-26T05:57:22.810Z,51.323441
2023-03-26T05:58:22.794Z,51.323425
2023-03-26T05:59:22.805Z,51.323448
2023-03-26T06:00:22.761Z,51.323471
2023-03-26T06:01:22.762Z,51.323486
2023-03-26T06:02:22.742Z,51.323425
2023-03-26T06:03:22.844Z,51.323429
2023-03-26T06:04:22.835Z,51.323467
2023-03-26T06:05:22.673Z,51.323475
2023-03-26T06:06:22.654Z,51.323467
2023-03-26T06:07:22.651Z,51.323452
2023-03-26T06:08:22.624Z,51.323425
2023-03-26T06:09:22.639Z,51.323421
2023-03-26T06:10:22.584Z,51.323433
2023-03-26T06:11:22.568Z,51.323460
2023-03-26T06:12:22.544Z,51.323467
2023-03-26T06:13:22.532Z,51.323467
2023-03-26T06:14:22.541Z,51.323483
2023-03-26T06:15:22.502Z,51.323475
2023-03-26T06:16:27.262Z,51.323460
2023-03-26T06:17:23.468Z,51.323479
2023-03-26T06:18:22.482Z,51.323463
2023-03-26T06:19:22.449Z,51.323483
2023-03-26T06:20:22.405Z,51.323475
2023-03-26T06:21:22.381Z,51.323463
2023-03-26T06:22:22.365Z,51.323471
2023-03-26T06:23:22.340Z,51.323429
2023-03-26T06:24:22.346Z,51.323475
2023-03-26T06:25:22.298Z,51.323456
2023-03-26T06:26:22.276Z,51.323448
2023-03-26T06:27:22.257Z,51.323456
2023-03-26T06:28:22.253Z,51.323429
2023-03-26T06:29:22.257Z,51.323414
2023-03-26T06:30:22.193Z,51.323395
2023-03-26T06:31:22.190Z,51.323425
2023-03-26T06:32:22.187Z,51.323437
2023-03-26T06:33:24.411Z,51.323441
2023-03-26T06:34:23.144Z,51.323414
2023-03-26T06:35:22.090Z,51.323437
2023-03-26T06:36:22.068Z,51.323441
2023-03-26T06:37:22.099Z,51.323421
2023-03-26T06:38:22.033Z,51.323460
2023-03-26T06:39:22.035Z,51.323406
2023-03-26T06:40:21.979Z,51.323421
2023-03-26T06:41:21.968Z,51.323437
2023-03-26T06:42:21.938Z,51.323437
2023-03-26T06:43:22.924Z,51.323433
2023-03-26T06:44:21.933Z,51.323437
2023-03-26T06:45:21.888Z,51.323437
2023-03-26T06:46:21.916Z,51.323463
2023-03-26T06:47:21.898Z,51.323448
2023-03-26T06:48:21.819Z,51.323444
2023-03-26T06:49:21.829Z,51.323452
2023-03-26T06:50:21.783Z,51.323479
2023-03-26T06:51:21.782Z,51.323452
2023-03-26T06:52:21.745Z,51.323448
2023-03-26T06:53:21.733Z,51.323421
2023-03-26T06:54:21.740Z,51.323444
2023-03-26T06:55:21.703Z,51.323448
2023-03-26T06:56:21.669Z,51.323441
2023-03-26T06:57:21.654Z,51.323433
2023-03-26T06:58:21.641Z,51.323456
2023-03-26T06:59:21.654Z,51.323448
2023-03-26T07:00:21.604Z,51.323456
2023-03-26T07:01:21.599Z,51.323444
2023-03-26T07:02:21.587Z,51.323429
2023-03-26T07:03:21.549Z,51.323452
2023-03-26T07:04:21.633Z,51.323437
2023-03-26T07:05:21.531Z,51.323444
2023-03-26T07:06:21.483Z,51.323463
2023-03-26T07:07:22.475Z,51.323452
2023-03-26T07:08:21.463Z,51.323452
2023-03-26T07:09:21.461Z,51.323456
2023-03-26T07:10:21.417Z,51.323452
2023-03-26T07:11:21.400Z,51.323475
2023-03-26T07:12:21.405Z,51.323475
2023-03-26T07:13:21.363Z,51.323456
2023-03-26T07:14:21.376Z,51.323441
2023-03-26T07:15:21.357Z,51.323437
2023-03-26T07:16:21.336Z,51.323433
2023-03-26T07:17:21.286Z,51.323402
2023-03-26T07:18:21.332Z,51.323425
2023-03-26T07:19:21.288Z,51.323460
2023-03-26T07:20:21.234Z,51.323456
2023-03-26T07:21:21.216Z,51.323437
2023-03-26T07:22:21.237Z,51.323437
2023-03-26T07:23:21.195Z,51.323467
2023-03-26T07:24:21.195Z,51.323463
2023-03-26T07:25:21.148Z,51.323437
2023-03-26T07:26:21.120Z,51.323418
2023-03-26T07:27:22.109Z,51.323429
2023-03-26T07:28:21.099Z,51.323425
2023-03-26T07:29:21.115Z,51.323406
2023-03-26T07:30:21.071Z,51.323425
2023-03-26T07:31:21.059Z,51.323414
2023-03-26T07:32:21.140Z,51.323406
2023-03-26T07:33:21.177Z,51.323418
2023-03-26T07:34:21.018Z,51.323406
2023-03-26T07:35:20.985Z,51.323414
2023-03-26T07:36:20.945Z,51.323410
2023-03-26T07:37:20.930Z,51.323425
2023-03-26T07:38:20.911Z,51.323421
2023-03-26T07:39:20.920Z,51.323441
2023-03-26T07:40:20.872Z,51.323441
2023-03-26T07:41:20.849Z,51.323456
2023-03-26T07:42:20.828Z,51.323406
2023-03-26T07:43:20.805Z,51.323402
2023-03-26T07:44:20.826Z,51.323421
2023-03-26T07:45:20.764Z,51.323448
2023-03-26T07:46:20.830Z,51.323425
2023-03-26T07:47:20.725Z,51.323452
2023-03-26T07:48:20.704Z,51.323425
2023-03-26T07:49:20.715Z,51.323448
2023-03-26T07:50:20.674Z,51.323448
2023-03-26T07:51:20.644Z,51.323467
2023-03-26T07:52:20.630Z,51.323452
2023-03-26T07:53:20.600Z,51.323429
2023-03-26T07:54:20.763Z,51.323429
2023-03-26T07:55:20.559Z,51.323429
2023-03-26T07:56:20.609Z,51.323456
2023-03-26T07:57:20.552Z,51.323463
2023-03-26T07:58:20.495Z,51.323460
2023-03-26T07:59:20.499Z,51.323456
2023-03-26T08:00:20.492Z,51.323441
2023-03-26T08:01:20.432Z,51.323421
2023-03-26T08:02:20.423Z,51.323399
2023-03-26T08:03:20.650Z,51.323429
2023-03-26T08:04:24.325Z,51.323429
2023-03-26T08:05:21.384Z,51.323452
2023-03-26T08:06:20.328Z,51.323425
2023-03-26T08:07:20.306Z,51.323421
2023-03-26T08:08:20.286Z,51.323429
2023-03-26T08:09:20.263Z,51.323437
2023-03-26T08:10:20.330Z,51.323463
2023-03-26T08:11:20.226Z,51.323452
2023-03-26T08:12:20.208Z,51.323429
2023-03-26T08:13:20.186Z,51.323444
2023-03-26T08:14:20.162Z,51.323475
2023-03-26T08:15:20.635Z,51.323406
2023-03-26T08:16:20.187Z,51.323456
2023-03-26T08:17:20.100Z,51.323521
2023-03-26T08:18:20.087Z,51.323460
2023-03-26T08:19:20.067Z,51.323399
2023-03-26T08:20:20.083Z,51.323433
2023-03-26T08:21:20.030Z,51.323421
2023-03-26T08:22:19.999Z,51.323418
2023-03-26T08:23:19.991Z,51.323406
2023-03-26T08:24:19.959Z,51.323406
2023-03-26T08:25:19.970Z,51.323421
2023-03-26T08:26:19.920Z,51.323433
2023-03-26T08:27:19.903Z,51.323410
2023-03-26T08:28:19.888Z,51.323406
2023-03-26T08:29:19.892Z,51.323406
2023-03-26T08:30:19.874Z,51.323429
2023-03-26T08:31:19.880Z,51.323425
2023-03-26T08:32:19.810Z,51.323414
2023-03-26T08:33:19.800Z,51.323437
2023-03-26T08:34:19.779Z,51.323410
2023-03-26T08:35:19.807Z,51.323425
2023-03-26T08:36:19.735Z,51.323418
2023-03-26T08:37:19.720Z,51.323441
2023-03-26T08:38:19.701Z,51.323418
2023-03-26T08:39:19.685Z,51.323402
2023-03-26T08:40:19.698Z,51.323402
2023-03-26T08:41:19.666Z,51.323421
2023-03-26T08:42:19.633Z,51.323410
2023-03-26T08:43:19.610Z,51.323391
2023-03-26T08:44:19.595Z,51.323433
2023-03-26T08:45:19.613Z,51.323429
2023-03-26T08:46:19.579Z,51.323395
2023-03-26T08:47:19.539Z,51.323410
2023-03-26T08:48:19.523Z,51.323399
2023-03-26T08:49:19.504Z,51.323433
2023-03-26T08:50:19.513Z,51.323429
2023-03-26T08:51:19.475Z,51.323406
2023-03-26T08:52:19.453Z,51.323383
2023-03-26T08:53:19.438Z,51.323410
2023-03-26T08:54:19.415Z,51.323387
2023-03-26T08:55:19.430Z,51.323376
2023-03-26T08:56:19.393Z,51.323383
2023-03-26T08:57:19.369Z,51.323380
2023-03-26T08:58:19.353Z,51.323383
2023-03-26T08:59:19.334Z,51.323387
2023-03-26T09:00:19.345Z,51.323391
2023-03-26T09:01:19.333Z,51.323380
2023-03-26T09:02:19.281Z,51.323399
2023-03-26T09:03:19.258Z,51.323406
2023-03-26T09:04:19.281Z,51.323372
2023-03-26T09:05:19.254Z,51.323383
2023-03-26T09:06:19.211Z,51.323380
2023-03-26T09:07:19.187Z,51.323383
2023-03-26T09:08:19.172Z,51.323391
2023-03-26T09:09:19.561Z,51.323406
2023-03-26T09:10:19.162Z,51.323402
2023-03-26T09:11:19.138Z,51.323418
2023-03-26T09:12:19.108Z,51.323406
2023-03-26T09:13:19.089Z,51.323387
2023-03-26T09:14:19.070Z,51.323380
2023-03-26T09:15:19.076Z,51.323399
2023-03-26T09:16:19.132Z,51.323406
2023-03-26T09:17:19.017Z,51.323391
2023-03-26T09:18:18.999Z,51.323395
2023-03-26T09:19:18.976Z,51.323387
2023-03-26T09:20:18.988Z,51.323372
2023-03-26T09:21:18.944Z,51.323391
2023-03-26T09:22:18.929Z,51.323383
2023-03-26T09:23:18.909Z,51.323402
2023-03-26T09:24:18.893Z,51.323380
2023-03-26T09:25:18.907Z,51.323368
2023-03-26T09:26:18.866Z,51.323364
2023-03-26T09:27:18.839Z,51.323399
2023-03-26T09:28:18.816Z,51.323387
2023-03-26T09:29:18.808Z,51.323372
2023-03-26T09:30:18.813Z,51.323380
2023-03-26T09:31:18.803Z,51.323414
2023-03-26T09:32:18.752Z,51.323406
2023-03-26T09:33:18.737Z,51.323376
2023-03-26T09:34:18.720Z,51.323372
2023-03-26T09:35:18.753Z,51.323410
2023-03-26T09:36:18.682Z,51.323406
2023-03-26T09:37:18.734Z,51.323360
2023-03-26T09:38:18.663Z,51.323383
2023-03-26T09:39:18.625Z,51.323380
2023-03-26T09:40:18.645Z,51.323368
2023-03-26T09:41:18.596Z,51.323380
2023-03-26T09:42:18.636Z,51.323387
2023-03-26T09:43:18.617Z,51.323406
2023-03-26T09:44:18.539Z,51.323402
2023-03-26T09:45:18.579Z,51.323391
2023-03-26T09:46:18.587Z,51.323395
2023-03-26T09:47:18.563Z,51.323391
2023-03-26T09:48:18.467Z,51.323399
2023-03-26T09:49:18.459Z,51.323380
2023-03-26T09:50:18.460Z,51.323410
2023-03-26T09:51:18.414Z,51.323391
2023-03-26T09:52:18.396Z,51.323376
2023-03-26T09:53:18.383Z,51.323383
2023-03-26T09:54:18.361Z,51.323380
2023-03-26T09:55:18.374Z,51.323391
2023-03-26T09:56:18.326Z,51.323364
2023-03-26T09:57:18.432Z,51.323349
2023-03-26T09:58:18.302Z,51.323353
2023-03-26T09:59:18.280Z,51.323376
2023-03-26T10:00:18.294Z,51.323387
2023-03-26T10:01:18.302Z,51.323368
2023-03-26T10:02:18.232Z,51.323387
2023-03-26T10:03:18.249Z,51.323380
2023-03-26T10:04:18.212Z,51.323372
2023-03-26T10:05:18.203Z,51.323383
2023-03-26T10:06:18.157Z,51.323399
2023-03-26T10:07:18.154Z,51.323380
2023-03-26T10:08:18.122Z,51.323387
2023-03-26T10:09:18.107Z,51.323402
2023-03-26T10:10:18.116Z,51.323380
2023-03-26T10:11:18.069Z,51.323345
2023-03-26T10:12:18.052Z,51.323349
2023-03-26T10:13:18.081Z,51.323387
2023-03-26T10:14:18.014Z,51.323376
2023-03-26T10:15:18.029Z,51.323357
2023-03-26T10:16:18.006Z,51.323380
2023-03-26T10:17:17.962Z,51.323406
2023-03-26T10:18:27.044Z,51.323406
2023-03-26T10:19:18.934Z,51.323402
2023-03-26T10:20:17.942Z,51.323395
2023-03-26T10:21:17.888Z,51.323357
2023-03-26T10:22:17.872Z,51.323372
2023-03-26T10:23:17.858Z,51.323376
2023-03-26T10:24:17.841Z,51.323387
2023-03-26T10:25:17.867Z,51.323383
2023-03-26T10:26:17.801Z,51.323383
2023-03-26T10:27:17.785Z,51.323406
2023-03-26T10:28:17.764Z,51.323410
2023-03-26T10:29:17.748Z,51.323421
2023-03-26T10:30:17.758Z,51.323410
2023-03-26T10:31:17.725Z,51.323418
2023-03-26T10:32:17.695Z,51.323414
2023-03-26T10:33:17.680Z,51.323429
2023-03-26T10:34:28.946Z,51.323421
2023-03-26T10:35:18.687Z,51.323421
2023-03-26T10:36:17.628Z,51.323433
2023-03-26T10:37:18.612Z,51.323406
2023-03-26T10:38:17.602Z,51.323418
2023-03-26T10:39:36.835Z,51.323410
2023-03-26T10:40:18.590Z,51.323402
2023-03-26T10:41:17.550Z,51.323380
2023-03-26T10:42:17.531Z,51.323414
2023-03-26T10:43:17.511Z,51.323433
2023-03-26T10:44:17.495Z,51.323425
2023-03-26T10:45:17.514Z,51.323418
2023-03-26T10:46:17.508Z,51.323418
2023-03-26T10:47:17.446Z,51.323425
2023-03-26T10:48:17.447Z,51.323410
2023-03-26T10:49:17.408Z,51.323406
2023-03-26T10:50:22.978Z,51.323433
2023-03-26T10:51:18.388Z,51.323429
2023-03-26T10:52:17.363Z,51.323429
2023-03-26T10:53:17.355Z,51.323425
2023-03-26T10:54:17.332Z,51.323421
2023-03-26T10:55:17.338Z,51.323441
2023-03-26T10:56:17.296Z,51.323444
2023-03-26T10:57:17.315Z,51.323425
2023-03-26T10:58:17.269Z,51.323421
2023-03-26T10:59:17.250Z,51.323425
2023-03-26T11:00:17.284Z,51.323425
2023-03-26T11:01:17.240Z,51.323410
2023-03-26T11:02:17.193Z,51.323410
2023-03-26T11:03:17.195Z,51.323414
2023-03-26T11:04:17.194Z,51.323429
2023-03-26T11:05:17.179Z,51.323441
2023-03-26T11:06:17.121Z,51.323448
2023-03-26T11:07:17.109Z,51.323437
2023-03-26T11:08:17.091Z,51.323452
2023-03-26T11:09:17.076Z,51.323429
2023-03-26T11:10:17.072Z,51.323421
2023-03-26T11:11:17.084Z,51.323429
2023-03-26T11:12:26.792Z,51.323425
2023-03-26T11:13:18.012Z,51.323425
2023-03-26T11:14:27.947Z,51.323425
2023-03-26T11:15:19.013Z,51.323421
2023-03-26T11:16:16.967Z,51.323433
2023-03-26T11:17:40.942Z,51.323414
2023-03-26T11:18:17.976Z,51.323406
2023-03-26T11:19:16.915Z,51.323425
2023-03-26T11:20:16.887Z,51.323418
2023-03-26T11:21:19.370Z,51.323437
2023-03-26T11:22:16.859Z,51.323448
2023-03-26T11:23:16.843Z,51.323452
2023-03-26T11:24:16.835Z,51.323460
2023-03-26T11:25:16.810Z,51.323494
2023-03-26T11:26:16.851Z,51.323441